CheckWX is a tool to help pilots better visualize weather data.  It is not intended as a substitute for an official pre-flight weather briefing.

03:43:18 UTC

KFWZ METAR
South Pass
South Pass, Wyoming, USA
Current

8 mins ago

KFWZ 260335Z AUTO 23007KT 10SM 07/M01 A3000 RMK AO2
Observed
May-26 @ 03:35 UTC
Wind
  • 230° at 7 KTS
Visibility
10 SM
Temperature
C / 45°F
Dewpoint
-1°C / 30°F
Humidity
57%
Altimeter
30" Hg
Pressure
1015.92 hPa
Previous

28 mins ago

KFWZ 260315Z AUTO 24005KT 10SM 07/M01 A2998 RMK AO2
Observed
May-26 @ 03:15 UTC
Wind
  • 240° at 5 KTS
Visibility
10 SM
Temperature
C / 45°F
Dewpoint
-1°C / 30°F
Humidity
57%
Altimeter
29.98" Hg
Pressure
1015.22 hPa
Previous

48 mins ago

KFWZ 260255Z AUTO 25006KT 10SM 07/M01 A2998 RMK AO2 LTG DSNT NW
Observed
May-26 @ 02:55 UTC
Wind
  • 250° at 6 KTS
Visibility
10 SM
Temperature
C / 45°F
Dewpoint
-1°C / 30°F
Humidity
57%
Altimeter
29.98" Hg
Pressure
1015.22 hPa